Time;durP1;ratioP1;P1;durP2;ratioP2;P2;SDS_P1;SDS_P2;PMS_P1;PMS_P2;Temp;Humidity;BMP_temperature;BMP_pressure;BME280_temperature;BME280_humidity;BME280_pressure;Samples;Min_cycle;Max_cycle;Signal;HPM_P1;HPM_P2
2023/08/01 01:41:46;;;;;;;5.63;2.25;;;;;;;;;;4983422;28;20106;-81
2023/08/01 01:44:31;;;;;;;;;;;;;;;;;;;;;
2023/08/01 02:05:35;;;;;;;;;;;;;;;;;;;;;
2023/08/01 02:20:08;;;;;;;10.40;2.97;;;;;;;;;;4987821;28;20050;-81
2023/08/01 02:22:42;;;;;;;6.30;2.75;;;;;;;;;;4959694;28;20041;-82
2023/08/01 02:25:25;;;;;;;6.57;2.92;;;;;;;;;;4993989;28;20042;-81
2023/08/01 02:27:57;;;;;;;8.93;2.70;;;;;;;;;;4964505;28;20149;-81
2023/08/01 02:30:29;;;;;;;6.70;2.72;;;;;;;;;;4994920;28;20107;-81
2023/08/01 02:32:57;;;;;;;;;;;;;;;;;;4971614;28;20038;-81
2023/08/01 02:35:28;;;;;;;5.80;2.47;;;;;;;;;;4973769;28;19910;-81
2023/08/01 02:38:07;;;;;;;7.15;2.47;;;;;;;;;;4970883;28;20088;-81
2023/08/01 02:40:35;;;;;;;8.07;3.20;;;;;;;;;;4976149;28;20511;-81
2023/08/01 02:43:15;;;;;;;8.25;3.17;;;;;;;;;;4972249;28;20053;-81
2023/08/01 02:46:05;;;;;;;;;;;;;;;;;;;;;
2023/08/01 02:48:40;;;;;;;11.30;2.47;;;;;;;;;;4983656;28;20350;-81
2023/08/01 02:51:14;;;;;;;8.25;2.75;;;;;;;;;;4967411;28;22304;-81
2023/08/01 02:53:55;;;;;;;7.00;2.70;;;;;;;;;;4938104;28;20042;-82
2023/08/01 02:56:46;;;;;;;9.27;2.80;;;;;;;;;;4962772;28;20176;-81
2023/08/01 02:59:23;;;;;;;6.60;2.20;;;;;;;;;;4936937;28;20041;-81
2023/08/01 03:01:58;;;;;;;6.78;2.85;;;;;;;;;;4964424;28;20049;-82
2023/08/01 03:04:34;;;;;;;4.25;2.15;;;;;;;;;;4950095;28;20085;-82
2023/08/01 03:07:18;;;;;;;8.43;2.65;;;;;;;;;;4967556;28;20494;-81
2023/08/01 03:09:52;;;;;;;8.40;2.67;;;;;;;;;;4947745;28;20038;-81
2023/08/01 03:12:37;;;;;;;5.97;2.80;;;;;;;;;;4951012;28;20055;-81
2023/08/01 03:18:36;;;;;;;9.00;2.80;;;;;;;;;;4988263;28;20050;-82
2023/08/01 03:24:41;;;;;;;9.35;2.35;;;;;;;;;;4985959;28;20034;-82
2023/08/01 03:27:36;;;;;;;;;;;;;;;;;;;;;
2023/08/01 03:30:35;;;;;;;9.75;2.25;;;;;;;;;;4982490;28;21001;-80
2023/08/01 03:33:04;;;;;;;8.98;2.67;;;;;;;;;;4992028;28;20513;-82
2023/08/01 03:35:48;;;;;;;10.15;2.53;;;;;;;;;;4974788;28;20533;-82
2023/08/01 03:38:38;;;;;;;12.98;2.70;;;;;;;;;;4991531;28;20595;-82
2023/08/01 03:41:49;;;;;;;;;;;;;;;;;;;;;
2023/08/01 03:50:30;;;;;;;10.02;3.40;;;;;;;;;;4943264;28;20047;-81
2023/08/01 03:53:47;;;;;;;;;;;;;;;;;;;;;
2023/08/01 04:03:04;;;;;;;;;;;;;;;;;;;;;
2023/08/01 04:06:05;;;;;;;9.07;3.05;;;;;;;;;;4825765;29;21009;-81
2023/08/01 04:08:48;;;;;;;8.35;2.67;;;;;;;;;;4824110;29;20145;-82
2023/08/01 04:11:32;;;;;;;6.60;2.95;;;;;;;;;;4822153;29;20052;-82
2023/08/01 04:14:48;;;;;;;7.18;2.80;;;;;;;;;;4884513;29;20071;-82
2023/08/01 04:17:45;;;;;;;6.90;2.83;;;;;;;;;;4834648;29;20049;-81
2023/08/01 04:20:49;;;;;;;7.07;2.90;;;;;;;;;;4869970;29;20052;-82
2023/08/01 04:23:28;;;;;;;8.30;2.60;;;;;;;;;;4853678;29;20080;-82
2023/08/01 04:26:40;;;;;;;6.90;2.50;;;;;;;;;;4971874;28;20089;-82
2023/08/01 04:46:40;;;;;;;;;;;;;;;;;;;;;
2023/08/01 04:50:04;;;;;;;11.15;2.88;;;;;;;;;;5006953;28;20040;-82
2023/08/01 05:06:36;;;;;;;9.95;3.20;;;;;;;;;;4967468;28;20493;-83
2023/08/01 05:17:55;;;;;;;13.52;2.97;;;;;;;;;;4985817;28;20374;-83
2023/08/01 05:20:21;;;;;;;11.70;3.08;;;;;;;;;;4992901;28;20358;-82
2023/08/01 05:22:47;;;;;;;8.88;3.72;;;;;;;;;;5004427;28;20034;-81
2023/08/01 05:25:13;;;;;;;8.98;3.40;;;;;;;;;;4993847;28;20038;-82
2023/08/01 05:27:39;;;;;;;10.80;3.35;;;;;;;;;;4974095;28;20556;-80
2023/08/01 05:30:06;;;;;;;12.82;3.65;;;;;;;;;;4994472;28;20129;-81
2023/08/01 05:32:32;;;;;;;13.43;3.70;;;;;;;;;;4991734;28;20084;-81
2023/08/01 05:34:58;;;;;;;10.95;4.30;;;;;;;;;;4991113;28;20716;-82
2023/08/01 05:37:24;;;;;;;8.43;3.67;;;;;;;;;;4991536;28;20042;-82
2023/08/01 05:39:50;;;;;;;11.00;3.75;;;;;;;;;;4990098;28;20038;-81
2023/08/01 05:42:16;;;;;;;7.80;3.42;;;;;;;;;;4971943;28;20137;-82
2023/08/01 05:44:42;;;;;;;11.82;3.35;;;;;;;;;;4972629;28;20066;-82
2023/08/01 05:47:08;;;;;;;9.27;3.42;;;;;;;;;;4990407;28;20858;-81
2023/08/01 05:49:34;;;;;;;10.82;3.30;;;;;;;;;;4988168;28;20117;-82
2023/08/01 05:52:00;;;;;;;10.15;3.35;;;;;;;;;;4993605;28;20042;-82
2023/08/01 05:54:26;;;;;;;8.80;3.22;;;;;;;;;;4995005;28;20050;-82
2023/08/01 05:56:53;;;;;;;9.40;3.25;;;;;;;;;;4989994;28;20367;-82
2023/08/01 05:59:19;;;;;;;7.95;3.17;;;;;;;;;;4988922;28;20074;-82
2023/08/01 06:01:45;;;;;;;11.95;3.55;;;;;;;;;;4981748;28;20027;-81
2023/08/01 06:04:11;;;;;;;12.85;3.65;;;;;;;;;;4980848;28;20504;-82
2023/08/01 06:06:37;;;;;;;11.20;3.03;;;;;;;;;;4991064;28;20109;-82
2023/08/01 06:09:03;;;;;;;10.27;3.30;;;;;;;;;;4990652;28;20044;-82
2023/08/01 06:11:29;;;;;;;9.07;3.85;;;;;;;;;;4964591;28;20125;-82
2023/08/01 06:13:55;;;;;;;10.45;5.22;;;;;;;;;;4990704;28;20097;-82
2023/08/01 06:16:21;;;;;;;9.35;4.55;;;;;;;;;;4990464;28;20436;-82
2023/08/01 06:18:47;;;;;;;8.90;4.43;;;;;;;;;;4973304;28;20046;-82
2023/08/01 06:21:13;;;;;;;11.18;4.72;;;;;;;;;;4991366;28;20043;-82
2023/08/01 06:23:39;;;;;;;12.52;5.60;;;;;;;;;;4985872;28;20493;-82
2023/08/01 06:26:05;;;;;;;9.77;5.22;;;;;;;;;;4971547;28;20086;-82
2023/08/01 06:28:31;;;;;;;9.95;4.13;;;;;;;;;;4990654;28;20085;-82
2023/08/01 06:30:57;;;;;;;11.68;4.38;;;;;;;;;;4990007;28;20046;-82
2023/08/01 06:33:23;;;;;;;10.80;3.92;;;;;;;;;;4990657;28;20589;-82
2023/08/01 06:35:49;;;;;;;11.00;3.97;;;;;;;;;;4969526;28;20047;-82
2023/08/01 06:38:15;;;;;;;11.57;4.50;;;;;;;;;;4982350;28;20047;-82
2023/08/01 06:40:41;;;;;;;12.32;4.50;;;;;;;;;;4972761;28;20042;-82
2023/08/01 06:43:07;;;;;;;13.98;4.63;;;;;;;;;;4990820;28;20030;-82
2023/08/01 06:45:33;;;;;;;13.30;4.03;;;;;;;;;;4990505;28;20843;-82
2023/08/01 06:47:59;;;;;;;9.73;3.88;;;;;;;;;;4991179;28;20114;-82
2023/08/01 06:50:25;;;;;;;6.95;3.15;;;;;;;;;;4973236;28;20081;-82
2023/08/01 06:52:51;;;;;;;8.38;3.20;;;;;;;;;;4971911;28;20473;-82
2023/08/01 06:55:17;;;;;;;9.32;3.55;;;;;;;;;;4973837;28;20086;-82
2023/08/01 06:57:43;;;;;;;9.77;3.67;;;;;;;;;;4993838;28;20073;-82
2023/08/01 07:00:11;;;;;;;9.07;3.47;;;;;;;;;;4994890;28;20427;-82
2023/08/01 07:02:37;;;;;;;10.55;3.33;;;;;;;;;;4975037;28;20137;-82
2023/08/01 07:05:04;;;;;;;9.40;3.35;;;;;;;;;;4973715;28;20122;-82
2023/08/01 07:07:30;;;;;;;13.77;4.03;;;;;;;;;;4961083;28;20085;-82
2023/08/01 07:09:56;;;;;;;9.82;3.45;;;;;;;;;;4986844;28;20046;-82
2023/08/01 07:12:22;;;;;;;13.75;3.38;;;;;;;;;;4974110;28;20771;-82
2023/08/01 07:14:48;;;;;;;10.95;3.95;;;;;;;;;;4993427;28;20062;-82
2023/08/01 07:17:14;;;;;;;7.38;2.72;;;;;;;;;;4988573;28;20038;-82
2023/08/01 07:19:40;;;;;;;7.10;3.35;;;;;;;;;;4994528;28;20497;-82
2023/08/01 07:22:06;;;;;;;9.82;3.78;;;;;;;;;;4993612;28;20118;-82
2023/08/01 07:24:32;;;;;;;10.50;4.03;;;;;;;;;;4973255;28;20039;-82
2023/08/01 07:26:58;;;;;;;8.68;4.10;;;;;;;;;;4974070;28;20041;-82
2023/08/01 07:29:24;;;;;;;13.85;4.30;;;;;;;;;;4974885;28;20066;-82
2023/08/01 07:31:50;;;;;;;12.32;4.05;;;;;;;;;;4974308;28;20042;-82
2023/08/01 07:34:16;;;;;;;13.80;4.35;;;;;;;;;;4972901;28;20051;-82
2023/08/01 07:36:42;;;;;;;12.68;3.70;;;;;;;;;;4973965;28;20503;-82
2023/08/01 07:39:08;;;;;;;13.63;4.10;;;;;;;;;;4974602;28;20053;-82
2023/08/01 07:41:34;;;;;;;11.35;4.13;;;;;;;;;;4973809;28;20038;-82
2023/08/01 07:44:03;;;;;;;9.93;4.35;;;;;;;;;;4975044;28;20082;-82
2023/08/01 07:46:29;;;;;;;12.48;4.03;;;;;;;;;;4963714;28;20078;-82
2023/08/01 07:48:55;;;;;;;11.63;3.85;;;;;;;;;;4973511;28;20051;-82
2023/08/01 07:51:21;;;;;;;11.55;4.00;;;;;;;;;;4973634;28;20679;-82
2023/08/01 07:53:47;;;;;;;10.43;3.75;;;;;;;;;;4987383;28;20094;-82
2023/08/01 07:56:13;;;;;;;9.88;3.40;;;;;;;;;;4964759;28;20046;-82
2023/08/01 07:58:39;;;;;;;9.90;4.28;;;;;;;;;;4974204;28;20043;-82
2023/08/01 08:01:06;;;;;;;9.75;3.30;;;;;;;;;;4965435;28;20049;-82
2023/08/01 08:03:32;;;;;;;6.82;3.38;;;;;;;;;;4966099;28;20091;-82
2023/08/01 08:05:58;;;;;;;13.15;3.70;;;;;;;;;;4971293;28;20047;-82
2023/08/01 08:08:25;;;;;;;11.55;4.03;;;;;;;;;;4972956;28;20042;-82
2023/08/01 08:10:51;;;;;;;10.02;3.30;;;;;;;;;;4973379;28;20074;-82
2023/08/01 08:13:17;;;;;;;7.55;3.10;;;;;;;;;;4973401;28;20061;-82
2023/08/01 08:15:43;;;;;;;12.20;3.55;;;;;;;;;;4956221;28;20042;-82
2023/08/01 08:18:09;;;;;;;9.00;3.40;;;;;;;;;;4973606;28;20051;-82
2023/08/01 08:20:41;;;;;;;10.43;4.18;;;;;;;;;;4971294;28;20038;-82
2023/08/01 08:23:07;;;;;;;;;;;;;;;;;;4971375;28;20390;-82
2023/08/01 08:25:33;;;;;;;11.63;4.40;;;;;;;;;;4955879;28;19918;-82
2023/08/01 08:27:59;;;;;;;9.55;3.92;;;;;;;;;;4968304;28;20050;-82
2023/08/01 08:30:25;;;;;;;14.73;4.32;;;;;;;;;;4979882;28;20055;-82
2023/08/01 08:32:51;;;;;;;10.57;4.80;;;;;;;;;;4972473;28;20035;-82
2023/08/01 08:35:17;;;;;;;18.15;4.10;;;;;;;;;;4972186;28;20545;-82
2023/08/01 08:37:43;;;;;;;13.23;3.72;;;;;;;;;;4954935;28;20038;-82
2023/08/01 08:40:09;;;;;;;19.13;4.75;;;;;;;;;;4968301;28;20466;-82
2023/08/01 08:42:35;;;;;;;14.32;4.97;;;;;;;;;;4955399;28;20058;-82
2023/08/01 08:45:03;;;;;;;12.43;4.47;;;;;;;;;;4973654;28;20197;-82
2023/08/01 08:47:31;;;;;;;17.05;3.95;;;;;;;;;;4955488;28;20039;-82
2023/08/01 08:49:57;;;;;;;13.23;4.18;;;;;;;;;;4973572;28;20102;-82
2023/08/01 08:52:25;;;;;;;12.55;3.75;;;;;;;;;;4971117;28;20082;-82
2023/08/01 08:54:51;;;;;;;16.63;5.10;;;;;;;;;;4955423;28;20047;-82
2023/08/01 08:57:19;;;;;;;25.38;5.68;;;;;;;;;;4972364;28;20729;-82
2023/08/01 08:59:46;;;;;;;14.82;4.30;;;;;;;;;;4979645;28;20050;-82
2023/08/01 09:02:11;;;;;;;9.93;3.45;;;;;;;;;;4972542;28;20039;-82
2023/08/01 09:04:37;;;;;;;11.10;4.22;;;;;;;;;;4955123;28;20852;-83
2023/08/01 09:07:07;;;;;;;8.55;4.00;;;;;;;;;;4972140;28;20118;-82
2023/08/01 09:09:33;;;;;;;8.55;3.65;;;;;;;;;;4953781;29;20039;-82
2023/08/01 09:11:59;;;;;;;7.82;3.78;;;;;;;;;;4966072;28;20422;-82
2023/08/01 09:14:25;;;;;;;10.27;3.70;;;;;;;;;;4951711;29;20059;-82
2023/08/01 09:16:51;;;;;;;11.38;3.90;;;;;;;;;;4961193;28;20394;-83
2023/08/01 09:19:21;;;;;;;8.93;3.92;;;;;;;;;;4971092;28;20057;-82
2023/08/01 09:21:48;;;;;;;8.00;3.55;;;;;;;;;;4970466;28;20520;-82
2023/08/01 09:24:14;;;;;;;6.53;3.38;;;;;;;;;;4954997;28;20049;-82
2023/08/01 09:26:40;;;;;;;7.65;3.40;;;;;;;;;;4971484;28;20734;-82
2023/08/01 09:29:06;;;;;;;6.00;2.75;;;;;;;;;;4972202;28;20053;-82
2023/08/01 09:31:33;;;;;;;8.05;3.95;;;;;;;;;;4972728;28;20042;-83
2023/08/01 09:34:00;;;;;;;9.13;4.00;;;;;;;;;;4967639;28;20038;-83
2023/08/01 09:36:26;;;;;;;8.40;4.20;;;;;;;;;;4971699;28;20533;-82
2023/08/01 09:38:52;;;;;;;5.25;3.13;;;;;;;;;;4972179;28;20130;-82
2023/08/01 09:41:18;;;;;;;6.50;3.40;;;;;;;;;;4971749;28;20047;-82
2023/08/01 09:43:45;;;;;;;7.72;3.28;;;;;;;;;;4969395;28;20038;-82
2023/08/01 09:46:12;;;;;;;6.70;3.20;;;;;;;;;;4961512;28;20470;-82
2023/08/01 09:48:38;;;;;;;8.73;3.08;;;;;;;;;;4971107;28;20125;-82
2023/08/01 09:51:11;;;;;;;8.68;3.35;;;;;;;;;;4972177;28;20705;-82
2023/08/01 09:53:50;;;;;;;10.65;3.15;;;;;;;;;;4974013;28;20429;-82
2023/08/01 09:56:26;;;;;;;8.85;3.80;;;;;;;;;;4972541;28;20062;-82
2023/08/01 09:58:53;;;;;;;7.55;3.78;;;;;;;;;;4967997;28;20042;-82
2023/08/01 10:01:20;;;;;;;8.90;3.13;;;;;;;;;;4972092;28;20042;-82
2023/08/01 10:03:50;;;;;;;8.13;3.65;;;;;;;;;;4978747;28;20085;-82
2023/08/01 10:06:19;;;;;;;8.00;3.40;;;;;;;;;;4964304;28;20182;-82
2023/08/01 10:08:46;;;;;;;8.45;3.83;;;;;;;;;;4953444;28;20039;-82
2023/08/01 10:11:17;;;;;;;8.20;3.67;;;;;;;;;;4971444;28;20042;-82
2023/08/01 10:13:43;;;;;;;8.30;4.22;;;;;;;;;;4972927;28;20051;-82
2023/08/01 10:16:10;;;;;;;7.13;3.55;;;;;;;;;;4954047;28;20402;-82
2023/08/01 10:18:40;;;;;;;7.22;3.80;;;;;;;;;;4972957;28;20565;-83
2023/08/01 10:21:07;;;;;;;8.07;3.28;;;;;;;;;;4969538;28;20070;-83
2023/08/01 10:23:37;;;;;;;10.25;3.65;;;;;;;;;;4972292;28;20154;-83
2023/08/01 10:26:05;;;;;;;7.15;3.28;;;;;;;;;;4964060;28;20082;-82
2023/08/01 10:28:35;;;;;;;7.60;3.60;;;;;;;;;;4970759;28;20039;-82
2023/08/01 10:31:15;;;;;;;9.70;3.53;;;;;;;;;;4970875;28;20043;-82
2023/08/01 10:33:45;;;;;;;7.15;3.85;;;;;;;;;;4953990;28;20505;-82
2023/08/01 10:36:24;;;;;;;7.88;3.42;;;;;;;;;;4956471;28;20513;-82
2023/08/01 10:38:50;;;;;;;7.22;3.08;;;;;;;;;;4954511;28;20090;-82
2023/08/01 10:41:26;;;;;;;7.43;3.47;;;;;;;;;;4969159;28;20173;-82
2023/08/01 10:43:52;;;;;;;10.32;3.80;;;;;;;;;;4971693;28;20039;-83
2023/08/01 10:46:18;;;;;;;8.48;3.38;;;;;;;;;;4960646;28;20062;-83
2023/08/01 10:48:54;;;;;;;9.00;3.58;;;;;;;;;;4970581;28;20069;-83
2023/08/01 10:51:20;;;;;;;9.27;3.63;;;;;;;;;;4967233;28;20081;-83
2023/08/01 10:53:46;;;;;;;7.05;3.42;;;;;;;;;;4953608;28;20047;-82
2023/08/01 10:56:16;;;;;;;9.07;4.00;;;;;;;;;;4964381;28;20039;-82
2023/08/01 10:58:42;;;;;;;8.55;3.65;;;;;;;;;;4968121;28;20066;-82
2023/08/01 11:01:08;;;;;;;6.95;3.70;;;;;;;;;;4977837;28;20038;-82
2023/08/01 11:03:38;;;;;;;8.10;3.63;;;;;;;;;;4973961;28;20693;-82
2023/08/01 11:06:04;;;;;;;7.13;3.15;;;;;;;;;;4970152;28;20538;-83
2023/08/01 11:08:37;;;;;;;6.28;3.75;;;;;;;;;;4969875;28;20641;-83
2023/08/01 11:11:04;;;;;;;7.85;4.10;;;;;;;;;;4967370;28;20049;-83
2023/08/01 11:13:30;;;;;;;6.40;3.45;;;;;;;;;;4976462;28;20059;-83
2023/08/01 11:15:56;;;;;;;8.35;3.70;;;;;;;;;;4967116;28;20066;-82
2023/08/01 11:18:22;;;;;;;7.18;3.55;;;;;;;;;;4969222;28;20553;-83
2023/08/01 11:20:48;;;;;;;7.50;3.38;;;;;;;;;;4951717;28;20043;-83
2023/08/01 11:23:14;;;;;;;7.03;3.55;;;;;;;;;;4969301;28;20042;-83
2023/08/01 11:25:43;;;;;;;6.05;3.47;;;;;;;;;;4958538;28;20732;-83
2023/08/01 11:28:10;;;;;;;6.65;3.53;;;;;;;;;;4966197;28;20046;-83
2023/08/01 11:30:36;;;;;;;6.85;3.13;;;;;;;;;;4969001;28;20134;-83
2023/08/01 11:33:04;;;;;;;6.57;3.22;;;;;;;;;;4970522;28;20072;-83
2023/08/01 11:35:30;;;;;;;6.18;3.30;;;;;;;;;;4970394;28;20065;-83
2023/08/01 11:37:58;;;;;;;9.60;3.78;;;;;;;;;;4970713;28;20093;-83
2023/08/01 11:40:24;;;;;;;9.30;3.67;;;;;;;;;;4970112;28;20118;-83
2023/08/01 11:42:51;;;;;;;6.57;3.53;;;;;;;;;;4959461;28;20206;-83
2023/08/01 11:45:17;;;;;;;7.75;3.45;;;;;;;;;;4972457;28;20046;-82
2023/08/01 11:47:47;;;;;;;6.68;2.95;;;;;;;;;;4957131;28;20066;-83
2023/08/01 11:50:13;;;;;;;6.03;3.33;;;;;;;;;;4956526;28;20042;-83
2023/08/01 11:52:39;;;;;;;8.43;3.10;;;;;;;;;;4952450;28;20047;-83
2023/08/01 11:55:06;;;;;;;5.38;3.05;;;;;;;;;;4953100;29;20067;-83
2023/08/01 11:57:32;;;;;;;6.72;3.45;;;;;;;;;;4955286;28;20402;-83
2023/08/01 11:59:58;;;;;;;8.30;3.33;;;;;;;;;;4973867;28;20046;-83
2023/08/01 12:02:30;;;;;;;5.78;3.22;;;;;;;;;;4973299;28;20494;-83
2023/08/01 12:04:56;;;;;;;5.88;2.55;;;;;;;;;;4972154;28;20378;-82
2023/08/01 12:07:25;;;;;;;6.07;2.60;;;;;;;;;;4972139;28;20053;-83
2023/08/01 12:09:58;;;;;;;4.40;2.20;;;;;;;;;;4972216;28;20082;-83
2023/08/01 12:12:24;;;;;;;8.82;2.40;;;;;;;;;;4967543;28;20074;-83
2023/08/01 12:14:50;;;;;;;6.05;2.47;;;;;;;;;;4971946;28;20426;-83
2023/08/01 12:17:16;;;;;;;8.48;2.92;;;;;;;;;;4956116;28;20142;-83
2023/08/01 12:19:42;;;;;;;4.05;2.17;;;;;;;;;;4973584;28;20118;-83
2023/08/01 12:22:08;;;;;;;4.10;1.77;;;;;;;;;;4953745;28;20039;-82
2023/08/01 12:24:37;;;;;;;4.53;2.08;;;;;;;;;;4956395;28;20051;-82
2023/08/01 12:27:03;;;;;;;6.00;2.78;;;;;;;;;;4972830;28;20059;-82
2023/08/01 12:29:29;;;;;;;9.13;2.45;;;;;;;;;;4955977;28;20066;-82
2023/08/01 12:31:55;;;;;;;5.70;2.13;;;;;;;;;;4977624;28;20424;-83
2023/08/01 12:34:21;;;;;;;7.10;2.40;;;;;;;;;;4972843;28;20053;-83
2023/08/01 12:36:47;;;;;;;5.68;2.60;;;;;;;;;;4972687;28;20132;-83
2023/08/01 12:39:13;;;;;;;5.35;2.00;;;;;;;;;;4972842;28;20468;-83
2023/08/01 12:41:39;;;;;;;4.85;2.13;;;;;;;;;;4970623;28;20039;-82
2023/08/01 12:44:05;;;;;;;4.57;1.63;;;;;;;;;;4978746;28;20046;-83
2023/08/01 12:46:31;;;;;;;4.35;2.00;;;;;;;;;;4957822;28;20030;-83
2023/08/01 12:48:57;;;;;;;7.55;2.10;;;;;;;;;;4973113;28;20051;-82
2023/08/01 12:51:23;;;;;;;4.28;1.70;;;;;;;;;;4972860;28;20073;-83
2023/08/01 12:53:49;;;;;;;5.10;1.77;;;;;;;;;;4958769;28;20078;-82
2023/08/01 12:56:15;;;;;;;5.65;2.42;;;;;;;;;;4972443;28;20141;-83
2023/08/01 12:58:41;;;;;;;3.97;1.92;;;;;;;;;;4955868;28;20125;-83
2023/08/01 13:01:08;;;;;;;4.57;1.92;;;;;;;;;;4972729;28;20586;-83
2023/08/01 13:03:34;;;;;;;4.07;2.05;;;;;;;;;;4951946;28;20371;-83
2023/08/01 13:06:00;;;;;;;4.28;1.73;;;;;;;;;;4971132;28;20477;-83
2023/08/01 13:08:26;;;;;;;9.27;2.10;;;;;;;;;;4972231;28;20042;-82
2023/08/01 13:10:52;;;;;;;8.95;2.38;;;;;;;;;;4950153;28;20051;-82
2023/08/01 13:13:18;;;;;;;5.88;2.65;;;;;;;;;;4970127;28;20046;-82
2023/08/01 13:15:44;;;;;;;6.55;2.40;;;;;;;;;;4955548;28;20498;-82
2023/08/01 13:18:10;;;;;;;6.53;2.10;;;;;;;;;;4974110;28;20038;-82
2023/08/01 13:20:36;;;;;;;7.13;2.17;;;;;;;;;;4958492;28;20047;-82
2023/08/01 13:23:03;;;;;;;10.15;3.30;;;;;;;;;;4950074;28;20042;-82
2023/08/01 13:25:29;;;;;;;5.40;2.60;;;;;;;;;;4972371;28;20074;-82
2023/08/01 13:27:55;;;;;;;5.03;2.13;;;;;;;;;;4973090;28;20050;-82
2023/08/01 13:30:21;;;;;;;6.25;2.22;;;;;;;;;;4970931;28;20077;-82
2023/08/01 13:32:47;;;;;;;5.53;2.47;;;;;;;;;;4968997;28;20146;-82
2023/08/01 13:35:13;;;;;;;5.47;2.80;;;;;;;;;;4969704;28;20130;-82
2023/08/01 13:37:39;;;;;;;7.28;2.58;;;;;;;;;;4971894;28;20045;-82
2023/08/01 13:40:06;;;;;;;4.82;2.50;;;;;;;;;;4978460;28;20046;-82
2023/08/01 13:42:32;;;;;;;6.45;2.17;;;;;;;;;;4970760;28;20101;-82
2023/08/01 13:45:00;;;;;;;6.15;2.13;;;;;;;;;;4969897;28;20081;-82
2023/08/01 13:47:26;;;;;;;5.47;2.53;;;;;;;;;;4960560;28;20501;-82
2023/08/01 13:49:52;;;;;;;7.82;2.60;;;;;;;;;;4962902;28;20491;-81
2023/08/01 13:52:18;;;;;;;5.47;2.38;;;;;;;;;;4971834;28;20046;-82
2023/08/01 13:54:44;;;;;;;6.25;2.90;;;;;;;;;;4971185;28;20047;-82
2023/08/01 13:57:10;;;;;;;5.60;2.55;;;;;;;;;;4950850;29;20050;-82
2023/08/01 13:59:36;;;;;;;5.28;2.55;;;;;;;;;;4972403;28;20454;-82
2023/08/01 14:02:03;;;;;;;7.18;2.53;;;;;;;;;;4971019;28;20035;-82
2023/08/01 14:04:29;;;;;;;8.93;2.70;;;;;;;;;;4970255;28;20038;-82
2023/08/01 14:06:55;;;;;;;6.43;2.47;;;;;;;;;;4971004;28;20122;-82
2023/08/01 14:09:21;;;;;;;7.00;2.85;;;;;;;;;;4970865;28;20062;-82
2023/08/01 14:11:47;;;;;;;7.32;2.33;;;;;;;;;;4952000;28;20059;-82
2023/08/01 14:14:13;;;;;;;8.77;3.25;;;;;;;;;;4949987;28;20078;-82
2023/08/01 14:16:39;;;;;;;5.72;2.28;;;;;;;;;;4970531;28;20150;-82
2023/08/01 14:19:06;;;;;;;4.53;2.30;;;;;;;;;;4953938;28;20374;-82
2023/08/01 14:21:32;;;;;;;4.88;2.40;;;;;;;;;;4970532;28;20039;-82
2023/08/01 14:23:58;;;;;;;6.38;2.45;;;;;;;;;;4966102;28;20055;-83
2023/08/01 14:26:24;;;;;;;6.82;2.55;;;;;;;;;;4963439;28;20081;-82
2023/08/01 14:28:50;;;;;;;5.07;2.33;;;;;;;;;;4951403;28;20050;-82
2023/08/01 14:31:16;;;;;;;5.07;2.13;;;;;;;;;;4970312;28;20082;-82
2023/08/01 14:33:42;;;;;;;5.15;2.45;;;;;;;;;;4971222;28;20426;-82
2023/08/01 14:36:09;;;;;;;7.40;2.65;;;;;;;;;;4969341;28;20069;-83
2023/08/01 14:38:35;;;;;;;7.43;2.88;;;;;;;;;;4971584;28;20126;-82
2023/08/01 14:41:04;;;;;;;6.32;2.88;;;;;;;;;;4967033;28;20114;-83
2023/08/01 14:43:30;;;;;;;7.03;2.63;;;;;;;;;;4968940;28;20039;-83
2023/08/01 14:45:57;;;;;;;7.28;2.90;;;;;;;;;;4967405;28;20038;-83
2023/08/01 14:48:23;;;;;;;9.55;2.92;;;;;;;;;;4957182;28;20043;-82
2023/08/01 14:50:49;;;;;;;4.63;2.35;;;;;;;;;;4970146;28;20090;-82
2023/08/01 14:53:15;;;;;;;4.63;2.47;;;;;;;;;;4970769;28;20046;-82
2023/08/01 14:55:41;;;;;;;5.93;2.60;;;;;;;;;;4952750;28;20076;-82
2023/08/01 14:58:07;;;;;;;5.13;2.40;;;;;;;;;;4970882;28;20069;-82
2023/08/01 15:00:36;;;;;;;4.90;2.42;;;;;;;;;;4970065;28;20070;-82
2023/08/01 15:03:03;;;;;;;5.15;2.53;;;;;;;;;;4972803;28;20049;-82
2023/08/01 15:05:29;;;;;;;6.63;2.65;;;;;;;;;;4953009;28;20102;-82
2023/08/01 15:07:55;;;;;;;8.40;2.97;;;;;;;;;;4974451;28;20047;-82
2023/08/01 15:10:21;;;;;;;14.25;3.67;;;;;;;;;;4971299;28;20058;-82
2023/08/01 15:12:47;;;;;;;9.68;3.42;;;;;;;;;;4970121;28;20410;-82
2023/08/01 15:15:13;;;;;;;6.05;3.15;;;;;;;;;;4971439;28;20066;-82
2023/08/01 15:17:39;;;;;;;6.88;2.92;;;;;;;;;;4957132;28;20054;-81
2023/08/01 15:20:05;;;;;;;6.18;2.25;;;;;;;;;;4974871;28;20039;-81
2023/08/01 15:22:31;;;;;;;9.05;3.25;;;;;;;;;;4968968;28;20043;-81
2023/08/01 15:24:57;;;;;;;7.03;3.00;;;;;;;;;;4974140;28;20426;-82
2023/08/01 15:27:23;;;;;;;5.63;2.50;;;;;;;;;;4976591;28;20042;-81
2023/08/01 15:29:49;;;;;;;4.53;1.88;;;;;;;;;;4956379;28;20094;-81
2023/08/01 15:32:15;;;;;;;6.32;2.10;;;;;;;;;;4966922;28;20394;-81
2023/08/01 15:34:41;;;;;;;5.07;1.90;;;;;;;;;;4974172;28;20123;-82
2023/08/01 15:37:09;;;;;;;5.10;2.00;;;;;;;;;;4972995;28;20055;-82
2023/08/01 15:39:35;;;;;;;4.20;2.10;;;;;;;;;;4961907;28;20043;-81
2023/08/01 15:42:01;;;;;;;4.80;1.83;;;;;;;;;;4973476;28;20049;-81
2023/08/01 15:44:27;;;;;;;5.75;2.00;;;;;;;;;;4973136;28;20050;-81
2023/08/01 15:46:53;;;;;;;6.50;2.35;;;;;;;;;;4973590;28;20035;-81
2023/08/01 15:49:19;;;;;;;7.10;2.42;;;;;;;;;;4955718;28;20050;-81
2023/08/01 15:51:45;;;;;;;5.72;1.85;;;;;;;;;;4974031;28;20717;-81
2023/08/01 15:54:11;;;;;;;6.65;2.25;;;;;;;;;;4957060;28;20802;-82
2023/08/01 15:56:38;;;;;;;4.55;2.22;;;;;;;;;;4956319;28;20077;-82
2023/08/01 15:59:04;;;;;;;5.68;2.00;;;;;;;;;;4977519;28;20058;-82
2023/08/01 16:01:30;;;;;;;6.53;2.22;;;;;;;;;;4973177;28;20376;-82
2023/08/01 16:03:57;;;;;;;6.55;1.88;;;;;;;;;;4965681;28;20121;-81
2023/08/01 16:06:23;;;;;;;4.47;2.00;;;;;;;;;;4973465;28;20043;-81
2023/08/01 16:08:49;;;;;;;4.50;2.10;;;;;;;;;;4967842;28;20035;-82
2023/08/01 16:11:15;;;;;;;4.30;1.90;;;;;;;;;;4955462;28;20047;-81
2023/08/01 16:13:41;;;;;;;5.03;2.15;;;;;;;;;;4960574;28;20505;-82
2023/08/01 16:16:07;;;;;;;5.20;2.22;;;;;;;;;;4947920;28;20051;-82
2023/08/01 16:18:33;;;;;;;6.22;2.30;;;;;;;;;;4956785;28;20086;-81
2023/08/01 16:20:59;;;;;;;5.47;2.20;;;;;;;;;;4955589;28;20047;-81
2023/08/01 16:23:25;;;;;;;4.55;2.00;;;;;;;;;;4955236;28;20035;-81
2023/08/01 16:25:51;;;;;;;6.20;2.15;;;;;;;;;;4953843;28;20086;-82
2023/08/01 16:28:17;;;;;;;4.47;2.38;;;;;;;;;;4953822;28;20391;-82
2023/08/01 16:30:44;;;;;;;5.50;2.15;;;;;;;;;;4960096;28;20051;-81
2023/08/01 16:33:11;;;;;;;4.50;1.90;;;;;;;;;;4952017;28;20573;-82
2023/08/01 16:35:37;;;;;;;6.13;2.15;;;;;;;;;;4953967;29;20491;-81
2023/08/01 16:38:03;;;;;;;4.88;2.15;;;;;;;;;;4951440;28;20394;-80
2023/08/01 16:40:29;;;;;;;4.20;2.30;;;;;;;;;;4953658;28;20043;-80
2023/08/01 16:42:55;;;;;;;6.05;2.28;;;;;;;;;;4952323;29;20115;-81
2023/08/01 16:45:21;;;;;;;4.40;2.03;;;;;;;;;;4954290;29;20046;-81
2023/08/01 16:47:47;;;;;;;4.18;2.17;;;;;;;;;;4950213;29;20098;-81
2023/08/01 16:50:17;;;;;;;6.35;2.42;;;;;;;;;;4954474;29;20085;-81
2023/08/01 16:52:43;;;;;;;4.15;2.10;;;;;;;;;;4944663;29;20039;-82
2023/08/01 16:55:09;;;;;;;5.32;2.95;;;;;;;;;;4953342;28;20081;-82
2023/08/01 16:57:35;;;;;;;5.60;2.45;;;;;;;;;;4953217;28;20051;-82
2023/08/01 17:00:01;;;;;;;4.63;1.90;;;;;;;;;;4968921;28;20047;-82
2023/08/01 17:02:27;;;;;;;5.32;2.50;;;;;;;;;;4955637;28;20039;-82
2023/08/01 17:04:53;;;;;;;5.00;2.10;;;;;;;;;;4970391;28;20090;-82
2023/08/01 17:07:19;;;;;;;5.72;1.90;;;;;;;;;;4968553;28;20527;-82
2023/08/01 17:09:45;;;;;;;4.70;1.88;;;;;;;;;;4948127;29;20079;-81
2023/08/01 17:12:11;;;;;;;6.68;2.03;;;;;;;;;;4966660;28;20095;-82
2023/08/01 17:14:37;;;;;;;7.13;2.00;;;;;;;;;;4966146;28;20819;-81
2023/08/01 17:17:03;;;;;;;4.65;2.28;;;;;;;;;;4972200;28;20035;-82
2023/08/01 17:19:29;;;;;;;7.55;2.83;;;;;;;;;;4965175;28;20062;-81
2023/08/01 17:21:55;;;;;;;5.65;2.15;;;;;;;;;;4959423;28;20230;-82
2023/08/01 17:24:21;;;;;;;5.22;2.53;;;;;;;;;;4970914;28;20141;-81
2023/08/01 17:26:47;;;;;;;6.35;2.70;;;;;;;;;;4951914;28;20589;-82
2023/08/01 17:29:13;;;;;;;6.45;2.72;;;;;;;;;;4972595;28;20121;-82
2023/08/01 17:31:39;;;;;;;7.22;2.88;;;;;;;;;;4954643;28;20207;-82
2023/08/01 17:34:06;;;;;;;7.35;3.10;;;;;;;;;;4978562;28;20471;-82
2023/08/01 17:36:32;;;;;;;6.53;2.85;;;;;;;;;;4972219;28;20042;-81
2023/08/01 17:38:58;;;;;;;5.80;2.22;;;;;;;;;;4977021;28;20090;-82
2023/08/01 17:41:25;;;;;;;4.97;2.17;;;;;;;;;;4959210;28;20035;-82
2023/08/01 17:43:51;;;;;;;5.00;2.63;;;;;;;;;;4971536;28;20038;-81
2023/08/01 17:46:21;;;;;;;5.30;2.58;;;;;;;;;;4967500;28;20046;-82
2023/08/01 17:48:47;;;;;;;6.13;2.20;;;;;;;;;;4980360;28;20039;-82
2023/08/01 17:51:14;;;;;;;5.50;2.50;;;;;;;;;;4954427;28;20035;-83
2023/08/01 17:53:43;;;;;;;6.40;2.13;;;;;;;;;;4970379;28;20959;-82
2023/08/01 17:56:09;;;;;;;6.68;2.80;;;;;;;;;;4971631;28;20042;-82
2023/08/01 17:58:35;;;;;;;4.95;2.55;;;;;;;;;;4971664;28;20129;-81
2023/08/01 18:01:01;;;;;;;7.70;2.90;;;;;;;;;;4976618;28;20066;-82
2023/08/01 18:03:27;;;;;;;5.78;2.78;;;;;;;;;;4971908;28;20066;-82
2023/08/01 18:06:06;;;;;;;9.02;2.70;;;;;;;;;;4972041;28;20077;-82
2023/08/01 18:08:32;;;;;;;6.72;2.63;;;;;;;;;;4971120;28;20046;-82